Time;durP1;ratioP1;P1;durP2;ratioP2;P2;SDS_P1;SDS_P2;PMS_P1;PMS_P2;Temp;Humidity;BMP_temperature;BMP_pressure;BME280_temperature;BME280_humidity;BME280_pressure;Samples;Min_cycle;Max_cycle;Signal;HPM_P1;HPM_P2
2022/06/14 00:03:18;;;;;;;4.50;2.67;;;;;;;20.92;48.38;99779.63;4447182;32;32639;-69
2022/06/14 00:05:46;;;;;;;5.47;2.28;;;;;;;21.34;47.01;99789.19;4443439;32;32104;-68
2022/06/14 00:08:15;;;;;;;4.25;2.62;;;;;;;20.77;49.43;99786.88;4446137;32;33867;-68
2022/06/14 00:10:43;;;;;;;4.95;2.50;;;;;;;20.71;48.89;99783.03;4447655;32;32821;-70
2022/06/14 00:13:11;;;;;;;7.87;3.35;;;;;;;20.45;50.15;99784.16;4445115;32;32402;-69
2022/06/14 00:15:39;;;;;;;5.35;2.83;;;;;;;20.99;48.51;99779.75;4444963;32;34971;-69
2022/06/14 00:18:07;;;;;;;7.15;3.12;;;;;;;21.28;47.61;99782.59;4442292;32;34590;-68
2022/06/14 00:20:35;;;;;;;5.57;2.40;;;;;;;20.65;49.52;99784.56;4448017;32;34186;-69
2022/06/14 00:23:03;;;;;;;5.87;3.22;;;;;;;20.97;48.93;99781.84;4448301;32;32462;-71
2022/06/14 00:25:40;;;;;;;5.85;3.53;;;;;;;20.79;49.39;99779.41;4448363;32;34641;-67
2022/06/14 00:28:10;;;;;;;6.12;3.30;;;;;;;20.52;49.58;99780.75;4447917;32;35632;-65
2022/06/14 00:30:39;;;;;;;8.38;3.58;;;;;;;20.54;49.58;99786.84;4444910;32;32695;-66
2022/06/14 00:33:07;;;;;;;5.72;3.35;;;;;;;20.35;50.24;99793.53;4450354;32;32754;-67
2022/06/14 00:35:34;;;;;;;7.68;3.53;;;;;;;20.05;51.35;99801.44;4446662;32;33812;-66
2022/06/14 00:38:03;;;;;;;9.32;3.67;;;;;;;19.66;52.85;99812.25;4448416;32;32462;-67
2022/06/14 00:40:33;;;;;;;7.05;3.12;;;;;;;19.27;53.61;99813.75;4447976;32;36286;-66
2022/06/14 00:43:03;;;;;;;5.78;3.72;;;;;;;19.47;53.35;99813.41;4447956;32;33386;-67
2022/06/14 00:45:34;;;;;;;6.95;3.60;;;;;;;19.03;54.56;99811.00;4451131;32;32890;-65
2022/06/14 00:48:09;;;;;;;6.72;4.18;;;;;;;18.78;55.15;99812.81;4451342;32;34010;-67
2022/06/14 00:50:46;;;;;;;6.93;3.87;;;;;;;19.16;54.66;99808.63;4447587;32;35163;-66
2022/06/14 00:53:18;;;;;;;6.78;3.53;;;;;;;19.24;54.35;99818.66;4451951;32;33777;-66
2022/06/14 00:55:50;;;;;;;7.12;3.45;;;;;;;18.75;55.63;99824.88;4438680;32;32804;-65
2022/06/14 00:58:33;;;;;;;7.97;3.87;;;;;;;18.85;55.32;99828.28;4450013;32;34113;-66
2022/06/14 01:01:07;;;;;;;6.15;3.60;;;;;;;18.36;56.60;99830.78;4443983;32;33932;-66
2022/06/14 01:03:43;;;;;;;5.93;3.37;;;;;;;18.65;55.31;99848.53;4449953;32;33739;-66
2022/06/14 01:06:16;;;;;;;5.00;3.42;;;;;;;19.00;55.62;99846.59;4449841;32;34743;-69
2022/06/14 01:08:58;;;;;;;9.27;3.37;;;;;;;19.55;53.32;99844.12;4445524;32;33999;-65
2022/06/14 01:11:43;;;;;;;9.23;4.05;;;;;;;18.84;54.67;99853.69;4443049;32;32967;-65
2022/06/14 01:14:15;;;;;;;7.47;3.70;;;;;;;19.89;52.00;99843.09;4443665;32;32532;-68
2022/06/14 01:16:44;;;;;;;5.45;3.33;;;;;;;19.48;52.94;99839.53;4451562;32;35034;-68
2022/06/14 01:19:18;;;;;;;6.82;3.35;;;;;;;19.06;56.05;99849.50;4447273;32;35015;-68
2022/06/14 01:21:53;;;;;;;6.55;3.45;;;;;;;19.35;54.34;99850.88;4449603;32;34526;-66
2022/06/14 01:24:22;;;;;;;6.68;3.35;;;;;;;19.51;53.30;99844.59;4449166;32;33650;-67
2022/06/14 01:26:49;;;;;;;6.25;3.47;;;;;;;19.26;53.48;99852.75;4440367;32;34080;-65
2022/06/14 01:29:18;;;;;;;5.95;3.20;;;;;;;19.72;52.03;99855.84;4444493;32;35319;-65
2022/06/14 01:31:46;;;;;;;6.72;3.00;;;;;;;19.90;52.03;99850.22;4450603;32;35141;-68
2022/06/14 01:34:14;;;;;;;15.50;3.78;;;;;;;19.82;51.89;99854.81;4443036;32;32358;-65
2022/06/14 01:36:42;;;;;;;4.97;2.80;;;;;;;19.73;52.11;99854.81;4452287;32;35145;-65
2022/06/14 01:39:11;;;;;;;6.40;3.37;;;;;;;19.81;52.29;99859.41;4451858;32;35170;-67
2022/06/14 01:41:45;;;;;;;5.87;3.42;;;;;;;19.53;52.25;99864.31;4451248;32;34982;-65
2022/06/14 01:44:25;;;;;;;7.50;3.60;;;;;;;20.14;50.83;99870.22;4440751;32;32275;-66
2022/06/14 01:47:15;;;;;;;8.38;3.20;;;;;;;20.18;49.96;99874.28;4441932;32;34841;-65
2022/06/14 01:53:07;;;;;;;5.10;3.25;;;;;;;20.40;49.33;99889.00;4441299;32;34141;-69
2022/06/14 01:55:43;;;;;;;7.07;3.15;;;;;;;20.28;49.72;99877.63;4447180;32;33128;-64
2022/06/14 01:58:34;;;;;;;9.13;2.92;;;;;;;20.37;50.05;99887.47;4453329;32;33659;-64
2022/06/14 02:01:20;;;;;;;5.53;3.35;;;;;;;20.40;49.90;99886.28;4439119;32;33770;-64
2022/06/14 02:06:47;;;;;;;4.90;3.15;;;;;;;20.62;49.50;99895.59;4452656;32;33019;-69
2022/06/14 02:09:20;;;;;;;6.95;3.55;;;;;;;20.80;48.21;99898.91;4453390;32;34688;-69
2022/06/14 02:11:48;;;;;;;5.18;2.92;;;;;;;20.19;50.47;99904.00;4450283;32;34169;-69
2022/06/14 02:14:18;;;;;;;6.05;3.22;;;;;;;20.59;49.21;99904.09;4446720;32;32826;-70
2022/06/14 02:16:54;;;;;;;6.12;3.15;;;;;;;20.82;48.63;99898.72;4447583;32;33922;-67
2022/06/14 02:19:37;;;;;;;6.25;3.50;;;;;;;20.81;48.44;99894.31;4436967;32;33812;-67
2022/06/14 02:22:09;;;;;;;7.37;2.90;;;;;;;20.78;48.81;99886.50;4448401;32;35270;-67
2022/06/14 02:24:49;;;;;;;8.43;3.00;;;;;;;20.79;48.87;99888.19;4451884;32;33468;-68
2022/06/14 02:27:26;;;;;;;6.70;2.97;;;;;;;20.90;48.56;99887.81;4450557;32;33684;-67
2022/06/14 02:29:57;;;;;;;6.45;2.83;;;;;;;20.47;50.49;99889.97;4451821;32;33855;-68
2022/06/14 02:32:28;;;;;;;6.05;3.17;;;;;;;20.63;49.02;99876.34;4451657;32;34096;-68
2022/06/14 02:35:18;;;;;;;5.45;2.97;;;;;;;20.57;49.21;99887.94;4446308;32;33973;-69
2022/06/14 02:37:52;;;;;;;4.70;2.97;;;;;;;20.52;49.67;99898.50;4451713;32;33609;-68
2022/06/14 02:40:35;;;;;;;6.50;3.35;;;;;;;20.72;49.21;99889.94;4453219;32;33544;-68
2022/06/14 02:43:30;;;;;;;5.95;3.35;;;;;;;20.57;48.65;99892.53;4449036;32;33721;-66
2022/06/14 02:46:09;;;;;;;7.68;3.85;;;;;;;20.48;48.87;99897.97;4443628;32;33958;-71
2022/06/14 02:48:54;;;;;;;5.85;3.10;;;;;;;20.20;49.37;99894.81;4446511;32;33591;-70
2022/06/14 02:51:27;;;;;;;6.47;3.77;;;;;;;19.85;50.36;99904.22;4434688;32;33416;-67
2022/06/14 02:53:54;;;;;;;6.90;3.47;;;;;;;20.19;49.84;99897.69;4441141;32;33917;-67
2022/06/14 02:56:30;;;;;;;6.07;3.17;;;;;;;20.32;49.82;99908.91;4446009;32;33798;-68
2022/06/14 02:59:20;;;;;;;6.00;3.08;;;;;;;20.30;49.11;99916.38;4445790;32;33701;-70
2022/06/14 03:02:11;;;;;;;5.75;2.97;;;;;;;20.42;48.54;99919.59;4447664;32;35361;-69
2022/06/14 03:04:46;;;;;;;6.87;3.35;;;;;;;20.43;48.73;99921.25;4435024;32;32962;-67
2022/06/14 03:07:21;;;;;;;10.15;3.58;;;;;;;20.39;48.48;99918.06;4434094;32;33420;-67
2022/06/14 03:09:49;;;;;;;9.32;3.78;;;;;;;20.33;48.99;99920.62;4447140;32;33393;-69
2022/06/14 03:12:38;;;;;;;4.87;3.08;;;;;;;20.46;48.56;99927.19;4447666;32;35271;-73
2022/06/14 03:15:42;;;;;;;7.55;3.62;;;;;;;19.76;50.19;99927.78;4445581;32;33884;-69
2022/06/14 03:18:23;;;;;;;7.20;3.22;;;;;;;20.23;49.29;99923.53;4444487;32;33806;-70
2022/06/14 03:21:00;;;;;;;6.80;3.37;;;;;;;20.38;49.53;99923.66;4448595;32;33417;-69
2022/06/14 03:23:40;;;;;;;7.47;3.30;;;;;;;20.31;49.61;99914.50;4448816;32;33798;-71
2022/06/14 03:26:13;;;;;;;9.80;3.45;;;;;;;20.02;50.15;99916.75;4445361;32;35033;-68
2022/06/14 03:28:44;;;;;;;5.87;3.70;;;;;;;19.39;52.05;99917.41;4448772;32;32768;-67
2022/06/14 03:31:27;;;;;;;8.65;3.87;;;;;;;19.52;51.79;99922.34;4449312;32;32785;-65
2022/06/14 03:34:04;;;;;;;4.95;3.25;;;;;;;19.76;51.50;99924.25;4445819;32;33732;-66
2022/06/14 03:36:32;;;;;;;7.28;3.00;;;;;;;20.29;50.02;99930.13;4450622;32;32727;-66
2022/06/14 03:39:12;;;;;;;6.60;3.72;;;;;;;20.51;49.45;99926.69;4447555;32;34830;-69
2022/06/14 03:41:44;;;;;;;6.22;3.40;;;;;;;20.55;49.27;99929.94;4450777;32;33423;-66
2022/06/14 03:44:13;;;;;;;6.12;3.03;;;;;;;20.74;49.44;99928.66;4449237;32;32725;-68
2022/06/14 03:46:50;;;;;;;5.70;3.05;;;;;;;20.88;49.36;99927.94;4449695;32;33800;-66
2022/06/14 03:49:22;;;;;;;5.78;3.03;;;;;;;20.90;48.43;99931.34;4448583;32;32637;-66
2022/06/14 03:52:42;;;;;;;5.95;3.10;;;;;;;20.56;49.22;99939.78;4448587;32;32433;-68
2022/06/14 03:55:37;;;;;;;6.18;3.50;;;;;;;20.65;48.82;99947.75;4414832;32;32062;-67
2022/06/14 03:58:23;;;;;;;8.40;3.23;;;;;;;19.99;51.17;99949.69;4435595;32;34957;-67
2022/06/14 04:01:18;;;;;;;5.75;3.12;;;;;;;19.95;50.75;99955.66;4435067;32;33824;-68
2022/06/14 04:04:05;;;;;;;6.10;3.55;;;;;;;20.04;50.34;99956.50;4442023;32;34439;-66
2022/06/14 04:06:41;;;;;;;7.35;2.83;;;;;;;20.40;49.65;99955.06;4449170;32;33610;-67
2022/06/14 04:09:24;;;;;;;8.60;4.00;;;;;;;20.39;50.68;99963.41;4451432;32;32949;-65
2022/06/14 04:12:13;;;;;;;5.75;3.17;;;;;;;20.65;50.04;99961.34;4448766;32;32643;-67
2022/06/14 04:14:54;;;;;;;4.97;3.22;;;;;;;20.61;50.27;99964.56;4446580;32;33525;-68
2022/06/14 04:17:34;;;;;;;6.32;3.42;;;;;;;20.11;50.85;99971.09;4450355;32;34958;-66
2022/06/14 04:20:25;;;;;;;6.62;3.67;;;;;;;19.88;51.10;99970.94;4448535;32;33834;-66
2022/06/14 04:23:06;;;;;;;7.62;4.00;;;;;;;19.32;54.13;99976.06;4443607;32;32618;-66
2022/06/14 04:25:49;;;;;;;7.03;3.72;;;;;;;19.69;52.06;99969.38;4450134;32;33428;-66
2022/06/14 04:28:59;;;;;;;6.72;3.25;;;;;;;20.09;51.65;99970.41;4449373;32;33931;-66
2022/06/14 04:31:48;;;;;;;6.40;3.42;;;;;;;20.28;52.11;99983.63;4426318;32;33453;-65
2022/06/14 04:34:29;;;;;;;6.85;3.08;;;;;;;20.04;52.80;99979.06;4444347;32;33846;-67
2022/06/14 04:37:01;;;;;;;7.22;3.45;;;;;;;20.14;52.00;99982.47;4444521;32;33484;-66
2022/06/14 04:39:38;;;;;;;7.43;3.58;;;;;;;20.65;50.21;99990.41;4449396;32;34712;-67
2022/06/14 04:42:41;;;;;;;8.85;4.07;;;;;;;20.34;52.34;99990.25;4448709;32;33418;-67
2022/06/14 04:45:18;;;;;;;10.07;3.92;;;;;;;20.75;49.75;99992.94;4394169;32;34097;-65
2022/06/14 04:47:53;;;;;;;10.23;3.15;;;;;;;20.95;50.72;99996.94;4446901;32;34039;-66
2022/06/14 04:50:26;;;;;;;;;;;;;;;21.17;49.47;99993.44;4449186;32;33951;-66
2022/06/14 04:52:57;;;;;;;5.75;3.30;;;;;;;20.92;49.66;100006.28;4434835;32;33400;-68
2022/06/14 04:55:32;;;;;;;5.57;3.25;;;;;;;21.33;49.99;100010.72;4449562;32;32387;-68
2022/06/14 04:58:06;;;;;;;7.72;3.47;;;;;;;20.58;50.58;100003.84;4450981;32;33618;-66
2022/06/14 05:00:37;;;;;;;6.85;3.03;;;;;;;20.96;50.27;100001.34;4447194;32;34620;-65
2022/06/14 05:03:15;;;;;;;5.85;3.12;;;;;;;21.25;50.46;100000.75;4448710;32;34130;-65
2022/06/14 05:05:47;;;;;;;5.25;3.37;;;;;;;21.24;49.49;100014.50;4449035;32;33911;-66
2022/06/14 05:08:23;;;;;;;5.95;3.20;;;;;;;21.35;49.08;100009.56;4449659;32;33603;-64
2022/06/14 05:10:57;;;;;;;5.40;3.65;;;;;;;20.93;50.04;100010.72;4449185;32;35109;-64
2022/06/14 05:13:37;;;;;;;7.97;3.55;;;;;;;20.94;49.63;100009.69;4448142;32;34096;-66
2022/06/14 05:16:09;;;;;;;5.62;3.10;;;;;;;20.80;50.24;100028.59;4448718;32;34220;-66
2022/06/14 05:18:52;;;;;;;8.68;3.85;;;;;;;20.39;52.66;100028.66;4443748;32;34443;-65
2022/06/14 05:21:26;;;;;;;7.22;4.12;;;;;;;20.36;51.62;100035.28;4447877;32;34063;-66
2022/06/14 05:23:54;;;;;;;7.03;3.12;;;;;;;19.50;52.98;100033.78;4448029;32;34844;-65
2022/06/14 05:26:31;;;;;;;5.03;3.05;;;;;;;20.64;51.11;100037.66;4449850;32;32487;-65
2022/06/14 05:29:27;;;;;;;5.53;3.37;;;;;;;21.04;50.96;100038.59;4449463;32;33510;-66
2022/06/14 05:32:10;;;;;;;9.98;3.65;;;;;;;20.48;51.98;100030.31;4449106;32;32426;-66
2022/06/14 05:35:03;;;;;;;6.37;4.00;;;;;;;20.88;50.90;100031.31;4448501;32;35265;-67
2022/06/14 05:37:43;;;;;;;5.50;3.42;;;;;;;21.48;50.52;100027.22;4464958;32;32649;-66
2022/06/14 05:40:28;;;;;;;6.57;3.60;;;;;;;21.77;50.07;100034.69;4459756;32;33399;-66
2022/06/14 05:43:07;;;;;;;7.47;3.30;;;;;;;21.43;49.78;100035.06;4447885;32;34714;-67
2022/06/14 05:45:39;;;;;;;6.00;3.28;;;;;;;21.37;49.69;100031.16;4450904;32;32540;-67
2022/06/14 05:48:09;;;;;;;7.68;3.35;;;;;;;21.78;48.55;100026.31;4441000;32;34082;-65
2022/06/14 05:50:40;;;;;;;6.72;3.17;;;;;;;21.59;49.95;100027.63;4435483;32;32947;-65
2022/06/14 05:53:14;;;;;;;8.32;3.50;;;;;;;21.08;48.37;100024.44;4446795;32;32756;-65
2022/06/14 05:55:56;;;;;;;6.63;3.60;;;;;;;21.05;49.32;100034.81;4448694;32;34120;-64
2022/06/14 05:58:29;;;;;;;7.22;3.00;;;;;;;21.37;49.31;100037.44;4448608;32;34098;-68
2022/06/14 06:01:01;;;;;;;6.57;3.62;;;;;;;21.06;50.20;100029.22;4435717;32;32105;-66
2022/06/14 06:03:36;;;;;;;7.32;3.58;;;;;;;20.98;51.61;100037.41;4447058;32;32545;-66
2022/06/14 06:06:12;;;;;;;8.05;4.12;;;;;;;20.80;50.65;100043.09;4446630;32;32748;-66
2022/06/14 06:08:44;;;;;;;5.68;3.28;;;;;;;20.74;51.00;100046.50;4450959;32;32612;-66
2022/06/14 06:11:19;;;;;;;6.95;3.12;;;;;;;21.34;49.92;100035.03;4448123;32;33168;-65
2022/06/14 06:13:51;;;;;;;9.55;3.42;;;;;;;21.15;50.81;100041.78;4448859;32;34842;-65
2022/06/14 06:16:23;;;;;;;9.45;3.37;;;;;;;21.60;49.43;100045.69;4450637;32;32730;-66
2022/06/14 06:19:30;;;;;;;6.37;2.87;;;;;;;21.67;49.24;100053.13;4446409;32;33652;-65
2022/06/14 06:22:22;;;;;;;8.93;3.15;;;;;;;21.74;48.08;100056.84;4397794;32;33445;-66
2022/06/14 06:24:57;;;;;;;6.70;2.85;;;;;;;21.93;47.85;100053.66;4447377;32;34023;-66
2022/06/14 06:27:29;;;;;;;7.68;3.37;;;;;;;21.64;49.92;100062.53;4446602;32;35171;-66
2022/06/14 06:30:12;;;;;;;5.82;3.20;;;;;;;21.61;48.45;100068.31;4443013;32;32778;-65
2022/06/14 06:32:40;;;;;;;9.98;3.20;;;;;;;21.85;47.85;100062.72;4445435;32;32349;-68
2022/06/14 06:35:09;;;;;;;7.78;3.28;;;;;;;22.06;47.44;100062.06;4448784;32;34376;-67
2022/06/14 06:37:50;;;;;;;9.50;3.20;;;;;;;22.50;47.49;100063.28;4450315;32;34915;-67
2022/06/14 06:40:21;;;;;;;7.12;3.53;;;;;;;21.95;47.34;100064.34;4435227;32;32900;-64
2022/06/14 06:42:52;;;;;;;6.40;3.58;;;;;;;22.56;45.59;100062.53;4446589;32;34799;-67
2022/06/14 06:45:38;;;;;;;6.53;3.10;;;;;;;22.49;46.33;100062.44;4448601;32;33509;-68
2022/06/14 06:48:05;;;;;;;;;;;;;;;22.27;47.72;100074.22;4446060;32;35168;-65
2022/06/14 06:50:45;;;;;;;5.55;2.78;;;;;;;22.24;47.51;100063.66;4447484;32;32751;-67
2022/06/14 06:53:17;;;;;;;8.05;3.42;;;;;;;21.52;47.16;100072.13;4448163;32;33397;-68
2022/06/14 06:55:48;;;;;;;8.90;3.60;;;;;;;21.58;47.64;100064.06;4446322;32;33647;-65
2022/06/14 06:58:18;;;;;;;5.53;2.80;;;;;;;21.59;47.38;100068.50;4448427;32;33088;-68
2022/06/14 07:00:47;;;;;;;10.18;3.30;;;;;;;21.59;46.56;100065.75;4447115;32;34179;-67
2022/06/14 07:03:27;;;;;;;6.20;3.10;;;;;;;22.14;45.38;100069.34;4445049;32;33289;-66
2022/06/14 07:05:59;;;;;;;6.85;2.83;;;;;;;21.88;45.89;100066.97;4441688;32;32177;-66
2022/06/14 07:08:49;;;;;;;4.65;2.55;;;;;;;21.58;45.82;100064.06;4442558;32;35193;-66
2022/06/14 07:11:20;;;;;;;12.55;3.25;;;;;;;21.22;46.28;100062.81;4434221;32;34681;-67
2022/06/14 07:13:55;;;;;;;5.93;2.58;;;;;;;21.71;47.79;100065.38;4432479;32;33111;-65
2022/06/14 07:16:32;;;;;;;8.00;2.90;;;;;;;21.68;46.37;100072.03;4446360;32;34597;-65
2022/06/14 07:19:25;;;;;;;7.78;2.80;;;;;;;21.54;44.15;100068.19;4446646;32;32908;-68
2022/06/14 07:22:12;;;;;;;5.25;2.42;;;;;;;21.57;44.97;100072.41;4447300;32;33936;-67
2022/06/14 07:25:03;;;;;;;6.60;3.15;;;;;;;22.10;44.43;100078.91;4449764;32;32400;-64
2022/06/14 07:27:53;;;;;;;10.52;3.67;;;;;;;21.85;43.04;100067.31;4448020;32;33646;-66
2022/06/14 07:30:29;;;;;;;6.37;2.80;;;;;;;21.40;45.22;100074.37;4447327;32;32739;-66
2022/06/14 07:32:58;;;;;;;8.80;2.70;;;;;;;21.59;45.97;100075.81;4447002;32;34009;-67
2022/06/14 07:35:33;;;;;;;7.20;2.97;;;;;;;22.06;44.66;100072.97;4442291;32;33398;-65
2022/06/14 07:38:13;;;;;;;5.32;2.65;;;;;;;21.69;46.11;100070.16;4447801;32;33620;-66
2022/06/14 07:41:03;;;;;;;6.80;3.00;;;;;;;22.00;45.57;100070.97;4443134;32;33965;-64
2022/06/14 07:44:00;;;;;;;7.43;3.22;;;;;;;22.46;42.73;100068.25;4434982;32;34774;-67
2022/06/14 07:47:03;;;;;;;5.32;2.47;;;;;;;22.27;44.66;100074.22;4403739;32;33302;-65
2022/06/14 07:49:31;;;;;;;6.50;2.87;;;;;;;;;;4420476;32;35213;-65
2022/06/14 07:52:08;;;;;;;6.10;2.50;;;;;;;23.10;42.96;100075.16;4445910;32;33983;-67
2022/06/14 07:54:40;;;;;;;6.80;3.05;;;;;;;23.09;42.55;100071.59;4452358;32;34118;-67
2022/06/14 07:57:10;;;;;;;6.10;2.53;;;;;;;22.72;41.62;100072.44;4460059;32;33701;-64
2022/06/14 07:59:46;;;;;;;4.80;2.60;;;;;;;23.34;40.42;100069.41;4463659;32;33061;-67
2022/06/14 08:02:25;;;;;;;12.27;3.00;;;;;;;23.00;41.84;100069.97;4461444;32;33878;-66
2022/06/14 08:05:01;;;;;;;5.82;2.37;;;;;;;23.09;40.31;100068.84;4440209;32;33674;-64
2022/06/14 08:07:30;;;;;;;6.25;2.53;;;;;;;23.20;42.17;100067.53;4450791;32;34465;-66
2022/06/14 08:10:06;;;;;;;4.37;2.05;;;;;;;22.68;40.77;100068.41;4448644;32;34964;-67
2022/06/14 08:12:39;;;;;;;5.37;2.75;;;;;;;23.30;39.64;100062.62;4446560;32;34809;-64
2022/06/14 08:15:14;;;;;;;7.05;2.22;;;;;;;23.04;38.91;100073.19;4446345;32;34272;-66
2022/06/14 08:17:57;;;;;;;8.00;2.97;;;;;;;23.22;36.10;100062.75;4447715;32;32191;-67
2022/06/14 08:20:28;;;;;;;5.68;2.40;;;;;;;23.11;35.10;100077.69;4445776;32;32329;-67
2022/06/14 08:23:00;;;;;;;7.22;2.60;;;;;;;22.93;35.10;100064.44;4446826;32;32813;-67
2022/06/14 08:25:37;;;;;;;5.82;2.47;;;;;;;23.41;34.56;100073.09;4448863;32;32828;-67
2022/06/14 08:28:12;;;;;;;9.50;2.40;;;;;;;23.22;34.84;100079.12;4447482;32;33592;-68
2022/06/14 08:30:45;;;;;;;6.78;2.25;;;;;;;23.30;36.42;100068.09;4437425;32;33625;-65
2022/06/14 08:33:20;;;;;;;6.45;2.47;;;;;;;23.39;36.34;100063.38;4449372;32;33182;-64
2022/06/14 08:35:51;;;;;;;5.10;2.12;;;;;;;22.79;34.94;100066.09;4447518;32;33883;-67
2022/06/14 08:38:33;;;;;;;4.70;2.22;;;;;;;23.02;34.32;100067.91;4448776;32;33451;-67
2022/06/14 08:41:20;;;;;;;6.30;2.25;;;;;;;22.88;33.39;100065.97;4436081;32;32839;-70
2022/06/14 08:43:52;;;;;;;5.72;2.08;;;;;;;23.12;33.37;100070.38;4447097;32;33800;-72
2022/06/14 08:46:41;;;;;;;6.22;2.08;;;;;;;23.04;34.90;100068.56;4442021;32;32989;-67
2022/06/14 08:49:39;;;;;;;9.88;2.20;;;;;;;23.29;35.45;100068.28;4457290;32;34725;-70
2022/06/14 08:52:38;;;;;;;7.65;2.75;;;;;;;23.78;34.64;100063.03;4459182;32;32589;-70
2022/06/14 08:55:10;;;;;;;10.98;3.00;;;;;;;23.69;33.46;100069.66;4437605;32;32715;-70
2022/06/14 08:58:04;;;;;;;9.40;2.72;;;;;;;24.24;33.36;100067.28;4450107;32;32829;-70
2022/06/14 09:00:31;;;;;;;5.50;2.00;;;;;;;24.47;34.07;100070.72;4438908;32;33436;-71
2022/06/14 09:03:14;;;;;;;10.88;2.12;;;;;;;23.73;33.38;100057.31;4447512;32;34766;-72
2022/06/14 09:05:58;;;;;;;7.10;3.03;;;;;;;24.38;33.75;100069.97;4448720;32;33776;-73
2022/06/14 09:09:10;;;;;;;3.85;1.90;;;;;;;24.32;34.01;100069.91;4449935;32;32514;-71
2022/06/14 09:11:43;;;;;;;5.28;1.98;;;;;;;23.89;34.29;100059.81;4445622;32;33633;-69
2022/06/14 09:14:44;;;;;;;3.42;1.85;;;;;;;24.26;32.59;100070.69;4448516;32;33484;-70
2022/06/14 09:17:38;;;;;;;3.58;1.77;;;;;;;24.18;32.86;100075.25;4446167;32;34048;-69
2022/06/14 09:20:38;;;;;;;4.60;1.95;;;;;;;24.10;30.35;100067.16;4448930;32;33760;-69
2022/06/14 09:23:19;;;;;;;4.62;1.90;;;;;;;24.00;31.67;100066.66;4446946;32;33614;-68
2022/06/14 09:26:08;;;;;;;6.87;2.20;;;;;;;24.46;31.07;100057.22;4451321;32;33837;-68
2022/06/14 09:28:54;;;;;;;7.10;1.80;;;;;;;24.66;32.69;100052.78;4451261;32;32785;-69
2022/06/14 09:31:52;;;;;;;7.70;2.03;;;;;;;25.09;30.07;100058.13;4451137;32;32790;-69
2022/06/14 09:34:47;;;;;;;9.73;2.12;;;;;;;24.72;29.73;100053.84;4450312;32;32436;-67
2022/06/14 09:37:30;;;;;;;13.65;2.75;;;;;;;25.13;30.26;100053.94;4438930;32;33933;-69
2022/06/14 09:40:22;;;;;;;7.55;2.50;;;;;;;24.82;27.97;100060.69;4448667;32;34059;-69
2022/06/14 09:43:05;;;;;;;6.30;2.20;;;;;;;25.28;28.92;100054.66;4436409;32;32709;-69
2022/06/14 09:45:54;;;;;;;5.97;2.03;;;;;;;25.68;27.88;100052.12;4433872;32;33752;-69
2022/06/14 09:48:40;;;;;;;3.12;1.55;;;;;;;25.78;26.92;100052.56;4448238;32;33733;-68
2022/06/14 09:51:26;;;;;;;5.20;2.10;;;;;;;25.23;27.63;100050.84;4446249;32;33635;-69
2022/06/14 09:54:06;;;;;;;6.28;2.17;;;;;;;25.91;29.87;100037.25;4446206;32;33821;-70
2022/06/14 09:56:52;;;;;;;4.45;1.60;;;;;;;25.54;29.04;100042.12;4447821;32;34497;-70
2022/06/14 09:59:35;;;;;;;4.65;2.10;;;;;;;25.17;27.78;100051.66;4448802;32;33804;-68
2022/06/14 10:02:34;;;;;;;4.00;1.50;;;;;;;25.26;28.12;100048.53;4443395;32;34437;-68
2022/06/14 10:05:33;;;;;;;4.60;1.98;;;;;;;25.88;28.07;100043.97;4453669;32;34085;-68
2022/06/14 10:08:38;;;;;;;5.15;2.20;;;;;;;25.78;28.72;100038.03;4449139;32;34684;-70
2022/06/14 10:11:34;;;;;;;4.53;1.75;;;;;;;25.95;27.39;100050.31;4438368;32;33547;-66
2022/06/14 10:14:20;;;;;;;3.53;1.85;;;;;;;26.30;26.17;100036.44;4450389;32;34018;-68
2022/06/14 10:17:15;;;;;;;6.25;1.95;;;;;;;25.97;26.63;100040.00;4449407;32;32050;-68
2022/06/14 10:19:53;;;;;;;6.57;2.28;;;;;;;26.00;28.40;100042.31;4451912;32;33867;-69
2022/06/14 10:22:21;;;;;;;4.72;1.95;;;;;;;25.54;29.00;100039.41;4453132;32;33904;-67
2022/06/14 10:25:10;;;;;;;6.80;2.00;;;;;;;25.22;29.74;100043.69;4451745;32;33885;-67
2022/06/14 10:28:12;;;;;;;7.87;1.75;;;;;;;25.24;28.69;100036.13;4449660;32;33788;-67
2022/06/14 10:30:40;;;;;;;5.07;1.80;;;;;;;25.70;27.07;100032.72;4449382;32;33509;-68
2022/06/14 10:33:16;;;;;;;4.80;2.00;;;;;;;26.39;26.78;100032.44;4444224;32;34790;-66
2022/06/14 10:35:53;;;;;;;4.20;2.00;;;;;;;25.30;27.84;100036.16;4450399;32;33362;-66
2022/06/14 10:38:37;;;;;;;4.70;2.10;;;;;;;24.83;28.14;100029.53;4449686;32;32857;-71
2022/06/14 10:41:19;;;;;;;8.10;2.67;;;;;;;25.42;28.52;100032.81;4446660;32;33405;-73
2022/06/14 10:44:08;;;;;;;4.22;1.92;;;;;;;25.67;27.78;100017.50;4436452;32;32568;-70
2022/06/14 10:46:43;;;;;;;6.82;2.35;;;;;;;25.61;30.32;100018.34;4447168;32;32923;-71
2022/06/14 10:49:22;;;;;;;6.00;2.00;;;;;;;24.92;28.33;100024.75;4446920;32;33929;-69
2022/06/14 10:52:05;;;;;;;8.23;2.30;;;;;;;25.65;27.68;100025.12;4447354;32;33714;-69
2022/06/14 10:54:47;;;;;;;5.90;2.00;;;;;;;25.61;28.69;100017.50;4449417;32;32751;-71
2022/06/14 10:57:26;;;;;;;6.40;2.42;;;;;;;25.36;28.93;100015.31;4451903;32;34010;-69
2022/06/14 11:00:23;;;;;;;5.68;2.20;;;;;;;26.09;28.66;100012.78;4443669;32;34830;-72
2022/06/14 11:03:20;;;;;;;4.43;1.95;;;;;;;26.01;28.50;100016.56;4445579;32;32856;-70
2022/06/14 11:06:22;;;;;;;6.75;2.00;;;;;;;25.94;28.00;100017.59;4439788;32;33678;-63
2022/06/14 11:09:06;;;;;;;6.78;2.10;;;;;;;26.24;27.56;100013.44;4444489;32;35044;-65
2022/06/14 11:11:46;;;;;;;11.73;2.58;;;;;;;25.93;28.09;100013.19;4441483;32;34070;-65
2022/06/14 11:14:27;;;;;;;6.85;2.25;;;;;;;26.54;28.70;100013.03;4449641;32;33330;-67
2022/06/14 11:17:17;;;;;;;6.25;2.20;;;;;;;25.54;28.31;100009.25;4444810;32;32481;-69
2022/06/14 11:19:58;;;;;;;4.32;1.90;;;;;;;26.18;27.95;100014.25;4436282;32;33960;-68
2022/06/14 11:22:39;;;;;;;4.75;2.35;;;;;;;25.97;28.77;100017.19;4435300;32;33846;-67
2022/06/14 11:25:12;;;;;;;5.35;2.40;;;;;;;25.89;30.23;100012.75;4447135;32;32361;-67
2022/06/14 11:28:01;;;;;;;7.15;2.67;;;;;;;25.81;30.05;100012.97;4443665;32;33793;-66
2022/06/14 11:30:40;;;;;;;5.90;2.30;;;;;;;25.98;29.64;100003.28;4445550;32;33527;-70
2022/06/14 11:33:47;;;;;;;8.70;2.70;;;;;;;25.53;30.50;100013.91;4446279;32;32670;-69
2022/06/14 11:36:31;;;;;;;7.30;2.22;;;;;;;25.67;28.24;100020.25;4441048;32;33392;-69
2022/06/14 11:39:05;;;;;;;7.47;2.87;;;;;;;25.26;29.34;100032.09;4443917;32;34399;-69
2022/06/14 11:41:39;;;;;;;4.53;2.00;;;;;;;25.95;28.57;100020.16;4442614;32;34067;-68
2022/06/14 11:44:19;;;;;;;3.83;1.90;;;;;;;25.77;26.72;100009.72;4432778;32;33651;-69
2022/06/14 11:47:02;;;;;;;5.55;1.98;;;;;;;26.14;28.06;100001.19;4454499;32;34744;-70
2022/06/14 11:49:37;;;;;;;6.75;2.25;;;;;;;26.25;29.59;100011.53;4458700;32;32330;-71
2022/06/14 11:52:29;;;;;;;5.43;2.05;;;;;;;26.29;29.66;100010.03;4447286;32;34011;-70
2022/06/14 11:55:18;;;;;;;4.75;2.00;;;;;;;25.12;30.32;100010.31;4448719;32;32953;-67
2022/06/14 11:58:02;;;;;;;6.05;2.35;;;;;;;25.43;31.20;100029.03;4445771;32;33641;-68
2022/06/14 12:01:08;;;;;;;5.65;2.08;;;;;;;24.75;31.01;100026.97;4447192;32;33868;-67
2022/06/14 12:04:25;;;;;;;9.00;2.22;;;;;;;24.84;32.05;100025.72;4462859;32;34322;-67
2022/06/14 12:06:55;;;;;;;6.25;2.28;;;;;;;25.31;30.61;100023.28;4404653;32;34168;-66
2022/06/14 12:09:39;;;;;;;9.00;2.58;;;;;;;25.50;30.41;100013.47;4439580;32;33499;-67
2022/06/14 12:12:27;;;;;;;6.03;2.80;;;;;;;24.62;31.17;100010.41;4435433;32;32514;-68
2022/06/14 12:15:07;;;;;;;5.12;2.22;;;;;;;25.06;30.80;100009.22;4440330;32;33957;-69
2022/06/14 12:18:01;;;;;;;8.80;2.70;;;;;;;25.45;31.27;100005.84;4443066;32;33175;-68
2022/06/14 12:20:34;;;;;;;4.82;2.40;;;;;;;25.24;31.06;100006.00;4448294;32;33465;-67
2022/06/14 12:23:10;;;;;;;6.40;1.92;;;;;;;25.96;30.43;99994.41;4450834;32;33826;-70
2022/06/14 12:26:36;;;;;;;6.75;2.62;;;;;;;25.74;30.63;99985.47;4447043;32;34045;-68
2022/06/14 12:29:35;;;;;;;6.30;2.00;;;;;;;25.98;29.41;99999.69;4426560;32;35042;-68
2022/06/14 12:32:18;;;;;;;6.10;2.12;;;;;;;25.17;30.41;99997.75;4438307;32;32359;-67
2022/06/14 12:35:01;;;;;;;4.68;2.10;;;;;;;25.55;29.90;99989.00;4439549;32;34504;-67
2022/06/14 12:37:45;;;;;;;4.97;2.10;;;;;;;25.35;30.99;99994.44;4455023;32;33763;-69